createdAt,value
2018-06-03T00:00:55.286Z,31.80
2018-06-03T00:03:24.799Z,31.80
2018-06-03T00:05:53.762Z,31.80
2018-06-03T00:08:22.677Z,31.80
2018-06-03T00:10:51.246Z,31.80
2018-06-03T00:13:19.879Z,31.80
2018-06-03T00:15:49.459Z,31.80
2018-06-03T00:18:18.951Z,31.70
2018-06-03T00:21:14.266Z,31.70
2018-06-03T00:23:43.875Z,31.60
2018-06-03T00:26:12.987Z,31.60
2018-06-03T00:28:42.478Z,31.70
2018-06-03T00:31:11.739Z,31.60
2018-06-03T00:33:40.881Z,31.60
2018-06-03T00:36:22.366Z,31.60
2018-06-03T00:38:51.575Z,31.60
2018-06-03T00:41:20.851Z,31.60
2018-06-03T00:43:50.331Z,31.60
2018-06-03T00:46:19.471Z,31.60
2018-06-03T00:48:49.458Z,31.60
2018-06-03T00:51:18.719Z,31.50
2018-06-03T00:53:48.051Z,31.50
2018-06-03T00:56:29.259Z,31.60
2018-06-03T00:58:58.791Z,31.50
2018-06-03T01:01:29.015Z,31.50
2018-06-03T01:03:58.302Z,31.40
2018-06-03T01:06:27.806Z,31.50
2018-06-03T01:08:57.082Z,31.40
2018-06-03T01:11:27.058Z,31.50
2018-06-03T01:13:56.080Z,31.50
2018-06-03T01:16:25.435Z,31.50
2018-06-03T01:18:54.610Z,31.50
2018-06-03T01:21:23.722Z,31.50
2018-06-03T01:23:54.238Z,31.50
2018-06-03T01:26:24.360Z,31.50
2018-06-03T01:28:53.663Z,31.40
2018-06-03T01:31:22.835Z,31.50
2018-06-03T01:33:52.060Z,31.50
2018-06-03T01:36:22.161Z,31.50
2018-06-03T01:38:52.071Z,31.60
2018-06-03T01:41:20.801Z,31.50
2018-06-03T01:43:50.303Z,31.60
2018-06-03T01:46:19.302Z,31.50
2018-06-03T01:48:48.333Z,31.60
2018-06-03T01:51:17.473Z,31.60
2018-06-03T01:53:46.984Z,31.60
2018-06-03T01:56:17.356Z,31.60
2018-06-03T01:58:46.815Z,31.60
2018-06-03T02:01:15.836Z,31.70
2018-06-03T02:03:45.675Z,31.70
2018-06-03T02:06:15.961Z,31.80
2018-06-03T02:08:45.860Z,31.80
2018-06-03T02:11:14.969Z,31.80
2018-06-03T02:13:45.007Z,31.90
2018-06-03T02:16:14.204Z,31.90
2018-06-03T02:18:44.180Z,32.00
2018-06-03T02:21:15.286Z,32.00
2018-06-03T02:23:44.237Z,32.00
2018-06-03T02:26:13.344Z,32.10
2018-06-03T02:28:43.483Z,32.20
2018-06-03T02:31:12.579Z,32.20
2018-06-03T02:33:42.445Z,32.40
2018-06-03T02:36:11.999Z,32.30
2018-06-03T02:38:41.993Z,32.50
2018-06-03T02:41:11.829Z,32.60
2018-06-03T02:43:40.754Z,32.50
2018-06-03T02:46:09.764Z,32.60
2018-06-03T02:48:40.066Z,32.80
2018-06-03T02:51:09.066Z,32.80
2018-06-03T02:53:38.910Z,33.00
2018-06-03T02:56:08.114Z,33.00
2018-06-03T02:58:38.518Z,33.10
2018-06-03T03:01:07.461Z,33.30
2018-06-03T03:03:36.612Z,33.30
2018-06-03T03:06:05.863Z,33.40
2018-06-03T03:08:35.723Z,33.60
2018-06-03T03:11:05.066Z,33.60
2018-06-03T03:13:34.046Z,33.60
2018-06-03T03:16:04.026Z,33.70
2018-06-03T03:18:34.334Z,33.70
2018-06-03T03:21:03.623Z,33.70
2018-06-03T03:23:32.845Z,33.70
2018-06-03T03:26:02.162Z,33.70
2018-06-03T03:28:32.098Z,34.10
2018-06-03T03:31:01.956Z,34.10
2018-06-03T03:33:31.330Z,34.20
2018-06-03T03:36:00.262Z,34.40
2018-06-03T03:38:29.329Z,34.40
2018-06-03T03:40:58.618Z,34.40
2018-06-03T03:43:27.559Z,34.70
2018-06-03T03:45:57.389Z,34.90
2018-06-03T03:48:27.153Z,35.10
2018-06-03T03:50:56.073Z,35.10
2018-06-03T03:53:24.999Z,35.30
2018-06-03T03:55:54.118Z,35.50
2018-06-03T03:58:23.177Z,35.70
2018-06-03T04:00:53.955Z,35.90
2018-06-03T04:03:23.252Z,36.00
2018-06-03T04:05:52.589Z,36.30
2018-06-03T04:08:21.687Z,36.50
2018-06-03T04:10:52.874Z,36.80
2018-06-03T04:13:21.914Z,36.80
2018-06-03T04:15:51.066Z,36.80
2018-06-03T04:18:20.690Z,37.20
2018-06-03T04:20:49.831Z,37.30
2018-06-03T04:23:19.586Z,37.80
2018-06-03T04:25:49.590Z,38.10
2018-06-03T04:28:18.695Z,38.10
2018-06-03T04:30:48.447Z,38.70
2018-06-03T04:33:17.675Z,38.70
2018-06-03T04:35:46.930Z,39.00
2018-06-03T04:38:16.028Z,39.30
2018-06-03T04:40:45.577Z,39.50
2018-06-03T04:43:14.610Z,39.90
2018-06-03T04:45:44.472Z,40.80
2018-06-03T04:48:14.026Z,40.70
2018-06-03T04:50:43.018Z,41.90
2018-06-03T04:53:12.196Z,42.70
2018-06-03T04:55:41.598Z,43.50
2018-06-03T04:58:11.467Z,45.10
2018-06-03T05:00:40.498Z,45.10
2018-06-03T05:03:10.150Z,44.60
2018-06-03T05:05:39.158Z,44.00
2018-06-03T05:08:08.160Z,43.80
2018-06-03T05:10:37.699Z,43.80
2018-06-03T05:13:06.404Z,43.80
2018-06-03T05:15:35.502Z,43.70
2018-06-03T05:18:05.730Z,44.70
2018-06-03T05:20:34.926Z,44.60
2018-06-03T05:23:04.891Z,46.40
2018-06-03T05:25:34.830Z,47.10
2018-06-03T05:28:03.749Z,47.00
2018-06-03T05:30:32.780Z,47.20
2018-06-03T05:33:02.314Z,47.60
2018-06-03T05:35:31.303Z,47.30
2018-06-03T05:38:00.347Z,47.60
2018-06-03T05:40:29.942Z,46.90
2018-06-03T05:42:58.965Z,46.40
2018-06-03T05:45:28.069Z,45.30
2018-06-03T05:47:57.559Z,45.30
2018-06-03T05:50:26.646Z,45.30
2018-06-03T05:52:56.657Z,45.30
2018-06-03T05:55:25.786Z,45.30
2018-06-03T05:57:54.882Z,45.30
2018-06-03T06:00:32.024Z,45.80
2018-06-03T06:03:01.172Z,45.80
2018-06-03T06:05:31.181Z,47.40
2018-06-03T06:08:00.481Z,47.40
2018-06-03T06:10:29.654Z,48.20
2018-06-03T06:12:59.675Z,48.80
2018-06-03T06:15:29.078Z,48.80
2018-06-03T06:17:58.287Z,49.90
2018-06-03T06:20:27.314Z,47.90
2018-06-03T06:22:56.650Z,48.80
2018-06-03T06:25:25.662Z,48.90
2018-06-03T06:27:54.598Z,49.30
2018-06-03T06:30:24.677Z,47.30
2018-06-03T06:32:54.685Z,47.80
2018-06-03T06:35:23.999Z,47.70
2018-06-03T06:37:54.011Z,47.30
2018-06-03T06:40:23.207Z,47.30
2018-06-03T06:42:52.418Z,47.60
2018-06-03T06:45:22.846Z,47.40
2018-06-03T06:47:52.136Z,47.00
2018-06-03T06:50:21.562Z,46.80
2018-06-03T06:52:51.675Z,47.10
2018-06-03T06:55:20.851Z,47.10
2018-06-03T06:57:49.976Z,47.20
2018-06-03T07:00:19.281Z,47.20
2018-06-03T07:02:49.290Z,47.20
2018-06-03T07:05:18.390Z,47.20
2018-06-03T07:07:49.560Z,48.20
2018-06-03T07:10:19.559Z,48.70
2018-06-03T07:12:48.780Z,48.70
2018-06-03T07:15:19.662Z,50.00
2018-06-03T07:17:49.043Z,50.10
2018-06-03T07:20:18.190Z,50.00
2018-06-03T07:22:47.451Z,49.10
2018-06-03T07:25:16.693Z,48.60
2018-06-03T07:27:45.992Z,48.30
2018-06-03T07:30:15.576Z,47.70
2018-06-03T07:32:44.846Z,47.40
2018-06-03T07:35:13.917Z,46.50
2018-06-03T07:37:44.320Z,45.30
2018-06-03T07:40:13.406Z,45.30
2018-06-03T07:42:42.550Z,45.00
2018-06-03T07:45:11.704Z,44.50
2018-06-03T07:47:40.831Z,44.40
2018-06-03T07:50:10.775Z,43.60
2018-06-03T07:52:40.313Z,43.60
2018-06-03T07:55:10.233Z,43.40
2018-06-03T07:57:39.520Z,43.40
2018-06-03T08:00:10.001Z,43.40
2018-06-03T08:02:39.100Z,43.40
2018-06-03T08:05:09.006Z,43.10
2018-06-03T08:07:38.419Z,43.10
2018-06-03T08:10:09.611Z,42.90
2018-06-03T08:12:39.029Z,42.90
2018-06-03T08:15:08.185Z,42.90
2018-06-03T08:17:37.287Z,42.60
2018-06-03T08:20:07.104Z,42.60
2018-06-03T08:22:36.166Z,42.40
2018-06-03T08:25:06.431Z,42.50
2018-06-03T08:27:35.702Z,42.20
2018-06-03T08:30:04.725Z,42.10
2018-06-03T08:32:33.720Z,41.80
2018-06-03T08:35:03.960Z,41.80
2018-06-03T08:37:34.100Z,41.80
2018-06-03T08:40:03.399Z,41.80
2018-06-03T08:42:32.549Z,41.80
2018-06-03T08:45:01.724Z,41.90
2018-06-03T08:47:32.145Z,41.80
2018-06-03T08:50:01.352Z,41.80
2018-06-03T08:52:30.666Z,41.80
2018-06-03T08:55:00.235Z,41.60
2018-06-03T08:57:29.137Z,41.40
2018-06-03T08:59:58.091Z,41.60
2018-06-03T09:02:27.303Z,41.60
2018-06-03T09:04:56.368Z,41.70
2018-06-03T09:07:25.429Z,41.70
2018-06-03T09:09:54.931Z,41.70
2018-06-03T09:12:26.600Z,41.50
2018-06-03T09:14:55.916Z,41.50
2018-06-03T09:17:25.162Z,41.40
2018-06-03T09:19:54.407Z,41.30
2018-06-03T09:22:23.913Z,41.40
2018-06-03T09:24:53.922Z,41.50
2018-06-03T09:27:22.955Z,41.50
2018-06-03T09:29:52.339Z,41.40
2018-06-03T09:32:21.463Z,41.40
2018-06-03T09:34:50.454Z,41.30
2018-06-03T09:37:19.597Z,41.30
2018-06-03T09:39:48.597Z,41.40
2018-06-03T09:42:17.803Z,41.30
2018-06-03T09:44:47.733Z,41.20
2018-06-03T09:47:16.830Z,41.30
2018-06-03T09:49:46.569Z,41.40
2018-06-03T09:52:16.799Z,41.30
2018-06-03T09:54:45.861Z,41.20
2018-06-03T09:57:15.832Z,41.20
2018-06-03T09:59:45.202Z,41.20
2018-06-03T10:02:14.298Z,41.20
2018-06-03T10:04:43.478Z,41.00
2018-06-03T10:07:12.942Z,41.00
2018-06-03T10:09:41.811Z,41.10
2018-06-03T10:12:10.912Z,41.00
2018-06-03T10:14:42.419Z,40.90
2018-06-03T10:17:11.542Z,40.90
2018-06-03T10:19:40.653Z,40.80
2018-06-03T10:22:10.058Z,41.10
2018-06-03T10:24:40.053Z,41.20
2018-06-03T10:27:09.295Z,41.20
2018-06-03T10:29:38.741Z,40.90
2018-06-03T10:32:07.742Z,40.60
2018-06-03T10:34:36.875Z,40.70
2018-06-03T10:37:07.534Z,40.40
2018-06-03T10:39:36.661Z,40.40
2018-06-03T10:42:05.950Z,40.20
2018-06-03T10:44:35.587Z,39.90
2018-06-03T10:47:05.743Z,39.90
2018-06-03T10:49:35.026Z,39.90
2018-06-03T10:52:04.351Z,39.70
2018-06-03T10:54:34.239Z,39.80
2018-06-03T10:57:03.506Z,39.70
2018-06-03T10:59:32.851Z,39.70
2018-06-03T11:02:02.022Z,39.50
2018-06-03T11:04:31.123Z,39.40
2018-06-03T11:07:01.655Z,39.20
2018-06-03T11:09:30.746Z,39.20
2018-06-03T11:12:00.744Z,39.30
2018-06-03T11:14:30.171Z,39.20
2018-06-03T11:17:01.007Z,39.20
2018-06-03T11:19:30.044Z,39.10
2018-06-03T11:21:59.262Z,39.10
2018-06-03T11:24:28.484Z,39.00
2018-06-03T11:26:57.763Z,39.00
2018-06-03T11:29:27.032Z,38.90
2018-06-03T11:31:56.136Z,38.90
2018-06-03T11:34:25.307Z,38.90
2018-06-03T11:36:54.657Z,38.80
2018-06-03T11:39:23.694Z,38.60
2018-06-03T11:41:53.726Z,38.60
2018-06-03T11:44:22.926Z,38.50
2018-06-03T11:46:51.934Z,38.50
2018-06-03T11:49:22.566Z,38.40
2018-06-03T11:51:51.667Z,38.40
2018-06-03T11:54:20.762Z,38.30
2018-06-03T11:57:00.054Z,38.30
2018-06-03T11:59:39.904Z,38.40
2018-06-03T12:02:09.164Z,38.40
2018-06-03T12:04:38.875Z,38.50
2018-06-03T12:07:08.623Z,38.40
2018-06-03T12:09:38.080Z,38.30
2018-06-03T12:12:07.254Z,38.30
2018-06-03T12:14:36.549Z,38.40
2018-06-03T12:17:07.465Z,38.30
2018-06-03T12:19:36.646Z,38.20
2018-06-03T12:22:05.769Z,38.20
2018-06-03T12:24:35.403Z,38.10
2018-06-03T12:27:05.475Z,38.10
2018-06-03T12:29:34.677Z,38.10
2018-06-03T12:32:04.331Z,37.90
2018-06-03T12:34:33.432Z,37.90
2018-06-03T12:37:03.790Z,37.70
2018-06-03T12:39:34.726Z,37.50
2018-06-03T12:42:03.896Z,37.50
2018-06-03T12:44:33.393Z,37.60
2018-06-03T12:47:02.827Z,37.60
2018-06-03T12:49:31.935Z,37.70
2018-06-03T12:52:01.438Z,37.70
2018-06-03T12:54:31.448Z,37.50
2018-06-03T12:57:00.197Z,37.50
2018-06-03T12:59:28.980Z,37.40
2018-06-03T13:01:57.770Z,37.30
2018-06-03T13:04:27.081Z,37.30
2018-06-03T13:06:56.298Z,37.40
2018-06-03T13:09:26.307Z,37.30
2018-06-03T13:11:55.028Z,37.20
2018-06-03T13:14:24.261Z,37.10
2018-06-03T13:16:53.195Z,37.10
2018-06-03T13:19:23.895Z,37.10
2018-06-03T13:21:52.951Z,37.10
2018-06-03T13:24:22.848Z,37.10
2018-06-03T13:26:52.836Z,37.10
2018-06-03T13:29:22.257Z,37.10
2018-06-03T13:31:51.402Z,37.00
2018-06-03T13:34:21.477Z,37.00
2018-06-03T13:36:51.750Z,36.90
2018-06-03T13:39:21.351Z,36.80
2018-06-03T13:41:50.240Z,36.80
2018-06-03T13:44:19.373Z,36.80
2018-06-03T13:46:48.400Z,36.80
2018-06-03T13:49:17.486Z,36.70
2018-06-03T13:51:46.458Z,36.80
2018-06-03T13:54:15.661Z,36.70
2018-06-03T13:57:36.317Z,36.70
2018-06-03T14:00:08.737Z,36.60
2018-06-03T14:02:41.214Z,36.60
2018-06-03T14:05:12.822Z,36.60
2018-06-03T14:07:45.345Z,36.60
2018-06-03T14:10:18.251Z,36.60
2018-06-03T14:12:51.099Z,36.50
2018-06-03T14:15:22.916Z,36.40
2018-06-03T14:17:54.451Z,36.40
2018-06-03T14:20:27.225Z,36.30
2018-06-03T14:23:03.844Z,36.30
2018-06-03T14:25:36.114Z,36.10
2018-06-03T14:28:09.038Z,36.20
2018-06-03T14:30:40.629Z,36.10
2018-06-03T14:33:12.401Z,36.10
2018-06-03T14:38:15.118Z,36.00
2018-06-03T14:40:46.668Z,36.00
2018-06-03T14:43:19.223Z,36.00
2018-06-03T14:53:25.885Z,35.90
2018-06-03T14:55:57.274Z,35.80
2018-06-03T14:58:28.913Z,35.80
2018-06-03T15:01:00.406Z,35.70
2018-06-03T15:03:32.513Z,35.60
2018-06-03T15:06:04.457Z,35.60
2018-06-03T15:08:36.455Z,35.60
2018-06-03T15:11:08.037Z,35.60
2018-06-03T15:13:40.381Z,35.60
2018-06-03T15:16:12.015Z,35.60
2018-06-03T15:18:44.170Z,35.60
2018-06-03T15:21:16.686Z,35.50
2018-06-03T15:26:19.348Z,35.40
2018-06-03T15:28:51.514Z,35.40
2018-06-03T15:31:23.057Z,35.40
2018-06-03T15:33:54.896Z,35.30
2018-06-03T15:36:26.850Z,35.30
2018-06-03T15:38:59.741Z,35.30
2018-06-03T15:41:31.692Z,35.20
2018-06-03T15:44:03.958Z,35.20
2018-06-03T15:46:35.758Z,35.10
2018-06-03T15:49:07.727Z,35.10
2018-06-03T15:51:40.278Z,35.20
2018-06-03T15:56:42.940Z,35.10
2018-06-03T15:59:15.028Z,35.10
2018-06-03T16:01:47.347Z,35.10
2018-06-03T16:04:19.237Z,35.10
2018-06-03T16:06:51.099Z,35.10
2018-06-03T16:09:23.199Z,35.10
2018-06-03T16:11:54.743Z,35.10
2018-06-03T16:16:57.799Z,35.00
2018-06-03T16:19:29.750Z,35.00
2018-06-03T16:22:03.029Z,34.90
2018-06-03T16:24:35.110Z,34.90
2018-06-03T16:27:06.906Z,35.00
2018-06-03T16:29:38.818Z,35.00
2018-06-03T16:32:10.494Z,34.90
2018-06-03T16:34:42.435Z,35.00
2018-06-03T16:37:14.173Z,34.90
2018-06-03T16:39:46.213Z,34.90
2018-06-03T16:42:18.052Z,35.00
2018-06-03T16:44:49.975Z,34.90
2018-06-03T16:47:21.848Z,34.90
2018-06-03T16:49:53.631Z,34.90
2018-06-03T16:52:25.200Z,34.90
2018-06-03T16:54:56.965Z,34.90
2018-06-03T16:59:59.817Z,34.90
2018-06-03T17:02:32.324Z,34.90
2018-06-03T17:05:04.270Z,34.90
2018-06-03T17:07:35.845Z,34.90
2018-06-03T17:10:07.635Z,34.90
2018-06-03T17:12:39.499Z,34.90
2018-06-03T17:17:42.242Z,34.90
2018-06-03T17:20:14.343Z,34.90
2018-06-03T17:22:47.901Z,34.90
2018-06-03T17:30:21.811Z,34.90
2018-06-03T17:32:53.545Z,34.90
2018-06-03T17:35:25.586Z,34.90
2018-06-03T17:37:57.539Z,34.90
2018-06-03T17:43:00.486Z,34.90
2018-06-03T17:45:32.490Z,34.90
2018-06-03T17:48:04.026Z,34.90
2018-06-03T17:50:36.464Z,34.90
2018-06-03T17:53:07.967Z,34.90
2018-06-03T17:55:39.674Z,34.80
2018-06-03T17:58:11.493Z,34.90
2018-06-03T18:00:43.139Z,34.80
2018-06-03T18:05:45.890Z,34.80
2018-06-03T18:08:17.476Z,34.70
2018-06-03T18:10:49.554Z,34.70
2018-06-03T18:15:52.198Z,34.70
2018-06-03T18:18:23.999Z,34.60
2018-06-03T18:20:55.710Z,34.70
2018-06-03T18:23:28.782Z,34.60
2018-06-03T18:26:01.190Z,34.60
2018-06-03T18:28:32.818Z,34.50
2018-06-03T18:33:35.380Z,34.60
2018-06-03T18:36:07.172Z,34.50
2018-06-03T18:38:38.805Z,34.40
2018-06-03T18:41:10.857Z,34.50
2018-06-03T18:43:42.281Z,34.50
2018-06-03T18:46:14.135Z,34.40
2018-06-03T18:48:45.911Z,34.40
2018-06-03T18:51:17.978Z,34.40
2018-06-03T18:53:50.296Z,34.40
2018-06-03T18:56:22.660Z,34.30
2018-06-03T18:58:54.386Z,34.30
2018-06-03T19:01:26.715Z,34.30
2018-06-03T19:03:58.477Z,34.30
2018-06-03T19:06:30.416Z,34.30
2018-06-03T19:09:02.286Z,34.20
2018-06-03T19:11:34.220Z,34.20
2018-06-03T19:14:05.567Z,34.10
2018-06-03T19:16:37.751Z,34.20
2018-06-03T19:19:09.372Z,34.20
2018-06-03T19:21:41.335Z,34.20
2018-06-03T19:24:14.247Z,34.10
2018-06-03T19:29:17.331Z,34.10
2018-06-03T19:31:49.431Z,34.10
2018-06-03T19:34:21.074Z,34.10
2018-06-03T19:36:53.087Z,34.10
2018-06-03T19:39:24.835Z,34.10
2018-06-03T19:41:56.734Z,33.90
2018-06-03T19:44:28.358Z,33.90
2018-06-03T19:47:00.163Z,33.80
2018-06-03T19:49:32.009Z,33.90
2018-06-03T19:52:04.002Z,33.80
2018-06-03T19:54:36.046Z,33.80
2018-06-03T19:57:08.122Z,33.70
2018-06-03T19:59:39.918Z,33.70
2018-06-03T20:02:11.881Z,33.80
2018-06-03T20:04:43.451Z,33.80
2018-06-03T20:07:15.414Z,33.70
2018-06-03T20:09:47.025Z,33.70
2018-06-03T20:12:19.126Z,33.80
2018-06-03T20:14:50.809Z,33.70
2018-06-03T20:19:53.878Z,33.70
2018-06-03T20:22:26.292Z,33.60
2018-06-03T20:24:58.627Z,33.60
2018-06-03T20:30:01.269Z,33.50
2018-06-03T20:32:33.289Z,33.40
2018-06-03T20:37:36.037Z,33.50
2018-06-03T20:40:07.652Z,33.40
2018-06-03T20:42:39.693Z,33.40
2018-06-03T20:47:42.315Z,33.30
2018-06-03T20:50:14.022Z,33.30
2018-06-03T20:52:45.749Z,33.20
2018-06-03T20:55:17.391Z,33.20
2018-06-03T20:57:49.446Z,33.20
2018-06-03T21:02:52.127Z,33.10
2018-06-03T21:05:23.649Z,33.10
2018-06-03T21:07:55.393Z,33.10
2018-06-03T21:10:26.998Z,33.10
2018-06-03T21:12:58.957Z,33.10
2018-06-03T21:15:30.654Z,33.10
2018-06-03T21:18:02.683Z,33.00
2018-06-03T21:20:34.274Z,33.00
2018-06-03T21:23:06.029Z,32.90
2018-06-03T21:25:39.606Z,32.90
2018-06-03T21:28:11.495Z,32.90
2018-06-03T21:30:43.381Z,32.90
2018-06-03T21:35:46.189Z,32.90
2018-06-03T21:38:18.211Z,32.90
2018-06-03T21:40:49.905Z,32.90
2018-06-03T21:43:22.063Z,32.90
2018-06-03T21:45:53.710Z,33.00
2018-06-03T21:48:25.720Z,32.90
2018-06-03T21:50:57.610Z,32.80
2018-06-03T21:53:29.607Z,32.80
2018-06-03T21:56:01.446Z,32.80
2018-06-03T22:01:04.241Z,32.80
2018-06-03T22:03:36.347Z,32.70
2018-06-03T22:06:08.127Z,32.70
2018-06-03T22:11:11.044Z,32.60
2018-06-03T22:13:43.019Z,32.60
2018-06-03T22:16:14.833Z,32.60
2018-06-03T22:18:46.616Z,32.50
2018-06-03T22:26:21.231Z,32.50
2018-06-03T22:31:23.822Z,32.50
2018-06-03T22:33:55.789Z,32.60
2018-06-03T22:36:27.499Z,32.50
2018-06-03T22:41:30.554Z,32.40
2018-06-03T22:44:02.457Z,32.40
2018-06-03T22:46:34.349Z,32.40
2018-06-03T22:49:07.485Z,32.40
2018-06-03T22:51:39.126Z,32.30
2018-06-03T22:56:59.799Z,32.30
2018-06-03T23:02:02.638Z,32.30
2018-06-03T23:04:34.720Z,32.40
2018-06-03T23:07:06.691Z,32.20
2018-06-03T23:09:39.023Z,32.20
2018-06-03T23:12:10.967Z,32.20
2018-06-03T23:14:43.121Z,32.20
2018-06-03T23:17:15.021Z,32.30
2018-06-03T23:19:47.255Z,32.30
2018-06-03T23:22:19.153Z,32.30
2018-06-03T23:24:51.349Z,32.20
2018-06-03T23:29:55.490Z,32.00
2018-06-03T23:32:27.390Z,31.90
2018-06-03T23:34:59.487Z,31.90
2018-06-03T23:37:31.616Z,31.90
2018-06-03T23:40:03.750Z,31.90
2018-06-03T23:42:35.550Z,31.80
2018-06-03T23:45:07.862Z,31.80
2018-06-03T23:47:39.690Z,31.80
2018-06-03T23:50:11.779Z,31.80
2018-06-03T23:52:44.267Z,31.80
2018-06-03T23:55:16.415Z,31.80
2018-06-03T23:57:48.158Z,31.70
